Terminal Aerodrome Forecast
Issued by NWS Raleigh/Durham, NC

Home | Current Version | Previous Version | Text Only | Print | Product List | Glossary On
Versions: 1 2 3 4 5 6 7 8 9 10 11 12 13 14 15 16 17 18
000
FTUS42 KRAH 280530 AAA
TAFGSO
TAF AMD
KGSO 280530Z 2806/0106 15003KT P6SM BKN035
      TEMPO 2809/2812 BKN015
     FM281600 20010G18KT P6SM BKN035
     FM282300 22005KT P6SM VCSH OVC030=

USA.gov is the U.S. government's official web portal to all federal, state and local government web resources and services.